createdAt,value
2019-03-12T00:00:37.250Z,0.55
2019-03-12T00:03:09.799Z,0.53
2019-03-12T00:05:40.705Z,0.51
2019-03-12T00:08:11.811Z,0.46
2019-03-12T00:10:43.484Z,0.44
2019-03-12T00:13:14.473Z,0.43
2019-03-12T00:15:45.412Z,0.41
2019-03-12T00:18:16.340Z,0.39
2019-03-12T00:20:47.240Z,0.37
2019-03-12T00:23:18.972Z,0.35
2019-03-12T00:25:49.864Z,0.35
2019-03-12T00:28:20.795Z,0.34
2019-03-12T00:30:51.710Z,0.32
2019-03-12T00:33:22.641Z,0.33
2019-03-12T00:35:53.538Z,0.30
2019-03-12T00:38:24.491Z,0.30
2019-03-12T00:40:55.385Z,0.29
2019-03-12T00:43:26.312Z,0.30
2019-03-12T00:45:57.215Z,0.27
2019-03-12T00:48:28.993Z,0.24
2019-03-12T00:50:59.901Z,0.24
2019-03-12T00:53:31.666Z,0.22
2019-03-12T00:56:02.559Z,0.23
2019-03-12T00:58:33.490Z,0.23
2019-03-12T01:01:04.385Z,0.24
2019-03-12T01:03:35.319Z,0.23
2019-03-12T01:06:06.227Z,0.24
2019-03-12T01:08:37.175Z,0.23
2019-03-12T01:11:08.081Z,0.24
2019-03-12T01:13:39.005Z,0.23
2019-03-12T01:16:09.922Z,0.23
2019-03-12T01:18:40.843Z,0.23
2019-03-12T01:21:11.747Z,0.24
2019-03-12T01:23:43.478Z,0.25
2019-03-12T01:26:14.382Z,0.27
2019-03-12T01:28:45.301Z,0.31
2019-03-12T01:31:16.196Z,0.33
2019-03-12T01:33:47.124Z,0.38
2019-03-12T01:36:18.024Z,0.40
2019-03-12T01:38:49.008Z,0.41
2019-03-12T01:41:19.896Z,0.44
2019-03-12T01:43:50.830Z,0.50
2019-03-12T01:46:21.724Z,0.56
2019-03-12T01:48:52.714Z,0.60
2019-03-12T01:51:23.712Z,0.61
2019-03-12T01:53:54.652Z,0.64
2019-03-12T01:56:25.553Z,0.67
2019-03-12T01:58:56.467Z,0.64
2019-03-12T02:01:27.371Z,0.63
2019-03-12T02:03:59.058Z,0.61
2019-03-12T02:06:29.956Z,0.62
2019-03-12T02:09:01.790Z,0.64
2019-03-12T02:11:32.681Z,0.63
2019-03-12T02:14:06.692Z,0.63
2019-03-12T02:16:37.568Z,0.59
2019-03-12T02:19:27.168Z,0.57
2019-03-12T02:21:58.040Z,0.55
2019-03-12T02:24:29.342Z,0.53
2019-03-12T02:27:00.231Z,0.52
2019-03-12T02:29:31.163Z,0.51
2019-03-12T02:32:02.037Z,0.56
2019-03-12T02:34:32.954Z,0.57
2019-03-12T02:37:03.844Z,0.60
2019-03-12T02:39:34.799Z,0.59
2019-03-12T02:42:05.690Z,0.64
2019-03-12T02:44:36.602Z,0.63
2019-03-12T02:47:07.476Z,0.65
2019-03-12T02:49:38.386Z,0.65
2019-03-12T02:52:09.278Z,0.66
2019-03-12T02:54:41.126Z,0.67
2019-03-12T02:57:12.004Z,0.68
2019-03-12T02:59:42.950Z,0.65
2019-03-12T03:02:13.845Z,0.65
2019-03-12T03:04:44.763Z,0.65
2019-03-12T03:07:20.252Z,0.66
2019-03-12T03:09:51.198Z,0.67
2019-03-12T03:12:22.098Z,0.66
2019-03-12T03:14:53.007Z,0.66
2019-03-12T03:17:23.963Z,0.66
2019-03-12T03:19:54.880Z,0.65
2019-03-12T03:22:25.766Z,0.62
2019-03-12T03:24:57.722Z,0.58
2019-03-12T03:27:29.550Z,0.59
2019-03-12T03:30:01.031Z,0.59
2019-03-12T03:32:31.967Z,0.58
2019-03-12T03:35:02.888Z,0.56
2019-03-12T03:37:33.767Z,0.54
2019-03-12T03:40:06.807Z,0.53
2019-03-12T03:42:37.707Z,0.53
2019-03-12T03:45:09.716Z,0.53
2019-03-12T03:47:40.618Z,0.54
2019-03-12T03:50:13.618Z,0.55
2019-03-12T03:52:44.550Z,0.58
2019-03-12T03:55:21.643Z,0.58
2019-03-12T03:57:52.620Z,0.56
2019-03-12T04:00:25.184Z,0.55
2019-03-12T04:02:56.064Z,0.57
2019-03-12T04:05:26.995Z,0.59
2019-03-12T04:07:57.890Z,0.59
2019-03-12T04:10:29.822Z,0.59
2019-03-12T04:13:00.759Z,0.59
2019-03-12T04:15:31.831Z,0.58
2019-03-12T04:18:02.824Z,0.58
2019-03-12T04:20:33.782Z,0.59
2019-03-12T04:23:04.670Z,0.60
2019-03-12T04:25:38.072Z,0.60
2019-03-12T04:28:08.963Z,0.59
2019-03-12T04:30:39.891Z,0.55
2019-03-12T04:33:32.693Z,0.54
2019-03-12T04:36:03.674Z,0.55
2019-03-12T04:38:34.576Z,0.55
2019-03-12T04:41:07.182Z,0.56
2019-03-12T04:43:38.074Z,0.58
2019-03-12T04:46:09.017Z,0.61
2019-03-12T04:48:39.898Z,0.64
2019-03-12T04:51:10.812Z,0.68
2019-03-12T04:53:41.701Z,0.72
2019-03-12T04:56:13.711Z,0.76
2019-03-12T04:58:44.608Z,0.80
2019-03-12T05:01:15.594Z,0.86
2019-03-12T05:03:46.486Z,0.92
2019-03-12T05:06:19.797Z,0.97
2019-03-12T05:08:50.008Z,1.02
2019-03-12T05:11:21.024Z,1.04
2019-03-12T05:14:18.316Z,1.07
2019-03-12T05:16:50.076Z,1.10
2019-03-12T05:19:20.962Z,1.07
2019-03-12T05:21:51.899Z,1.11
2019-03-12T05:24:22.792Z,1.15
2019-03-12T05:26:54.576Z,1.21
2019-03-12T05:29:25.484Z,1.23
2019-03-12T05:31:56.413Z,1.26
2019-03-12T05:34:27.317Z,1.30
2019-03-12T05:36:58.238Z,1.32
2019-03-12T05:39:29.135Z,1.36
2019-03-12T05:42:00.919Z,1.38
2019-03-12T05:44:31.829Z,1.37
2019-03-12T05:47:02.766Z,1.36
2019-03-12T05:49:33.668Z,1.43
2019-03-12T05:52:04.590Z,1.54
2019-03-12T05:54:35.489Z,1.85
2019-03-12T05:57:06.525Z,2.54
2019-03-12T05:59:37.445Z,2.54
2019-03-12T06:02:08.365Z,2.90
2019-03-12T06:04:44.941Z,3.27
2019-03-12T06:07:15.866Z,3.64
2019-03-12T06:09:46.749Z,3.94
2019-03-12T06:12:18.499Z,4.29
2019-03-12T06:14:50.221Z,4.62
2019-03-12T06:17:21.142Z,4.91
2019-03-12T06:19:52.032Z,5.23
2019-03-12T06:22:22.946Z,5.53
2019-03-12T06:24:53.906Z,5.85
2019-03-12T06:27:25.838Z,6.01
2019-03-12T06:29:56.739Z,6.17
2019-03-12T06:32:29.294Z,6.38
2019-03-12T06:35:01.843Z,6.58
2019-03-12T06:37:34.388Z,6.85
2019-03-12T06:40:12.076Z,7.08
2019-03-12T06:42:54.482Z,7.28
2019-03-12T06:45:33.023Z,7.46
2019-03-12T06:48:05.590Z,7.62
2019-03-12T06:50:53.377Z,7.81
2019-03-12T06:53:34.864Z,8.02
2019-03-12T06:56:09.873Z,8.17
2019-03-12T06:58:45.482Z,8.26
2019-03-12T07:01:34.444Z,8.38
2019-03-12T07:04:23.321Z,8.46
2019-03-12T07:07:12.827Z,8.48
2019-03-12T07:09:57.928Z,8.68
2019-03-12T07:12:45.496Z,8.78
2019-03-12T07:15:35.802Z,8.87
2019-03-12T07:18:14.157Z,8.93
2019-03-12T07:20:46.733Z,9.04
2019-03-12T07:23:19.281Z,9.27
2019-03-12T07:25:54.800Z,9.24
2019-03-12T07:28:50.188Z,9.22
2019-03-12T07:31:31.069Z,9.25
2019-03-12T07:34:10.036Z,9.09
2019-03-12T07:36:48.598Z,9.08
2019-03-12T07:39:26.869Z,9.20
2019-03-12T07:42:05.517Z,9.23
2019-03-12T07:44:38.050Z,9.33
2019-03-12T07:47:16.357Z,9.38
2019-03-12T07:50:05.191Z,9.47
2019-03-12T07:52:40.471Z,9.54
2019-03-12T07:55:13.012Z,9.53
2019-03-12T07:57:54.322Z,9.62
2019-03-12T08:00:41.887Z,9.51
2019-03-12T08:03:15.539Z,9.53
2019-03-12T08:06:03.348Z,9.60
2019-03-12T08:08:52.354Z,9.31
2019-03-12T08:11:27.843Z,9.34
2019-03-12T08:14:16.748Z,8.99
2019-03-12T08:16:52.881Z,8.68
2019-03-12T08:19:41.322Z,8.28
2019-03-12T08:22:25.701Z,8.18
2019-03-12T08:25:07.457Z,7.99
2019-03-12T08:27:55.023Z,8.27
2019-03-12T08:30:27.586Z,8.36
2019-03-12T08:33:02.824Z,8.41
2019-03-12T08:35:45.456Z,8.49
2019-03-12T08:38:21.086Z,8.50
2019-03-12T08:41:08.958Z,8.49
2019-03-12T08:43:41.498Z,8.47
2019-03-12T08:46:30.160Z,8.64
2019-03-12T08:49:05.406Z,8.71
2019-03-12T08:51:40.922Z,8.82
2019-03-12T08:54:28.806Z,8.90
2019-03-12T08:57:01.384Z,8.90
2019-03-12T08:59:50.022Z,8.82
2019-03-12T09:02:28.426Z,8.69
2019-03-12T09:05:00.982Z,8.65
2019-03-12T09:07:43.331Z,8.58
2019-03-12T09:10:21.717Z,8.53
2019-03-12T09:13:00.465Z,8.48
2019-03-12T09:15:33.114Z,8.55
2019-03-12T09:18:17.618Z,8.59
2019-03-12T09:20:56.184Z,8.50
2019-03-12T09:23:45.212Z,8.51
2019-03-12T09:26:28.250Z,8.39
2019-03-12T09:29:12.791Z,8.40
2019-03-12T09:31:48.050Z,8.34
2019-03-12T09:34:23.364Z,8.46
2019-03-12T09:37:04.864Z,8.48
2019-03-12T09:39:55.504Z,8.43
2019-03-12T09:42:28.035Z,8.52
2019-03-12T09:45:03.420Z,8.58
2019-03-12T09:47:35.945Z,8.53
2019-03-12T09:50:22.748Z,8.18
2019-03-12T09:53:00.987Z,8.15
2019-03-12T09:55:34.441Z,8.01
2019-03-12T09:58:06.979Z,8.00
2019-03-12T10:00:51.561Z,8.00
2019-03-12T10:03:24.092Z,7.95
2019-03-12T10:06:00.214Z,7.86
2019-03-12T10:08:35.479Z,7.96
2019-03-12T10:11:28.205Z,7.94
2019-03-12T10:14:06.810Z,7.94
2019-03-12T10:16:39.383Z,7.93
2019-03-12T10:19:15.628Z,8.08
2019-03-12T10:21:50.885Z,7.95
2019-03-12T10:24:23.409Z,8.08
2019-03-12T10:27:12.156Z,8.25
2019-03-12T10:29:44.691Z,8.43
2019-03-12T10:32:32.487Z,8.21
2019-03-12T10:35:08.229Z,8.19
2019-03-12T10:37:43.504Z,8.17
2019-03-12T10:40:24.784Z,8.07
2019-03-12T10:43:03.907Z,8.05
2019-03-12T10:45:45.820Z,8.20
2019-03-12T10:48:18.008Z,8.08
2019-03-12T10:50:48.900Z,7.95
2019-03-12T10:53:19.826Z,7.93
2019-03-12T10:55:50.725Z,8.12
2019-03-12T10:58:21.710Z,8.23
2019-03-12T11:00:52.668Z,8.21
2019-03-12T11:03:23.591Z,8.16
2019-03-12T11:05:54.484Z,8.14
2019-03-12T11:08:25.406Z,8.12
2019-03-12T11:10:56.301Z,8.23
2019-03-12T11:13:27.239Z,8.24
2019-03-12T11:15:58.144Z,8.23
2019-03-12T11:18:29.090Z,8.20
2019-03-12T11:21:01.579Z,8.24
2019-03-12T11:23:32.490Z,8.06
2019-03-12T11:26:03.381Z,7.85
2019-03-12T11:28:35.217Z,7.79
2019-03-12T11:31:06.203Z,7.75
2019-03-12T11:33:37.126Z,7.58
2019-03-12T11:36:11.949Z,7.56
2019-03-12T11:38:45.087Z,7.55
2019-03-12T11:41:15.423Z,7.62
2019-03-12T11:43:47.171Z,7.66
2019-03-12T11:46:18.067Z,7.68
2019-03-12T11:48:49.140Z,7.71
2019-03-12T11:51:20.216Z,7.63
2019-03-12T11:53:51.139Z,7.50
2019-03-12T11:56:22.019Z,7.50
2019-03-12T11:58:53.141Z,7.24
2019-03-12T12:01:24.083Z,7.23
2019-03-12T12:03:55.021Z,7.05
2019-03-12T12:06:26.009Z,7.07
2019-03-12T12:08:56.922Z,6.94
2019-03-12T12:11:27.826Z,7.00
2019-03-12T12:13:58.787Z,6.95
2019-03-12T12:16:30.292Z,6.70
2019-03-12T12:19:01.212Z,6.55
2019-03-12T12:21:32.106Z,6.37
2019-03-12T12:24:03.097Z,6.30
2019-03-12T12:26:33.997Z,6.29
2019-03-12T12:29:05.922Z,6.16
2019-03-12T12:31:36.833Z,6.09
2019-03-12T12:34:07.761Z,6.07
2019-03-12T12:36:38.736Z,6.08
2019-03-12T12:39:09.669Z,6.07
2019-03-12T12:41:40.579Z,6.13
2019-03-12T12:44:12.378Z,6.25
2019-03-12T12:46:43.277Z,6.37
2019-03-12T12:49:14.207Z,6.45
2019-03-12T12:51:45.207Z,6.56
2019-03-12T12:54:16.133Z,6.72
2019-03-12T12:56:47.030Z,6.86
2019-03-12T12:59:18.857Z,6.99
2019-03-12T13:01:49.729Z,7.12
2019-03-12T13:04:20.729Z,7.12
2019-03-12T13:06:51.612Z,7.21
2019-03-12T13:09:22.551Z,7.27
2019-03-12T13:11:53.450Z,7.33
2019-03-12T13:14:26.921Z,7.39
2019-03-12T13:16:57.891Z,7.32
2019-03-12T13:19:28.839Z,7.42
2019-03-12T13:22:00.595Z,7.44
2019-03-12T13:24:31.505Z,7.56
2019-03-12T13:27:02.392Z,7.61
2019-03-12T13:29:34.296Z,7.51
2019-03-12T13:32:13.360Z,7.56
2019-03-12T13:34:37.886Z,7.60
2019-03-12T13:37:08.772Z,7.61
2019-03-12T13:39:39.690Z,7.63
2019-03-12T13:42:10.581Z,7.69
2019-03-12T13:44:41.574Z,7.66
2019-03-12T13:47:12.485Z,7.69
2019-03-12T13:49:43.386Z,7.62
2019-03-12T13:52:14.266Z,7.68
2019-03-12T13:54:45.215Z,7.67
2019-03-12T13:57:16.083Z,7.58
2019-03-12T13:59:47.922Z,7.46
2019-03-12T14:02:18.821Z,7.36
2019-03-12T14:04:49.813Z,7.37
2019-03-12T14:07:21.695Z,7.43
2019-03-12T14:09:52.618Z,7.48
2019-03-12T14:12:23.522Z,7.50
2019-03-12T14:14:54.468Z,7.48
2019-03-12T14:17:25.382Z,7.48
2019-03-12T14:19:56.298Z,7.57
2019-03-12T14:22:27.258Z,7.61
2019-03-12T14:24:58.419Z,7.62
2019-03-12T14:27:29.386Z,7.68
2019-03-12T14:30:01.446Z,7.74
2019-03-12T14:32:32.406Z,7.89
2019-03-12T14:35:03.344Z,7.90
2019-03-12T14:37:36.088Z,7.91
2019-03-12T14:40:07.239Z,7.98
2019-03-12T14:42:38.188Z,8.03
2019-03-12T14:45:14.288Z,8.01
2019-03-12T14:47:45.182Z,8.01
2019-03-12T14:50:18.172Z,8.08
2019-03-12T14:52:57.572Z,8.12
2019-03-12T14:55:28.483Z,8.07
2019-03-12T14:57:59.378Z,8.10
2019-03-12T15:00:31.416Z,7.96
2019-03-12T15:03:02.342Z,7.98
2019-03-12T15:05:33.283Z,7.97
2019-03-12T15:08:05.195Z,7.98
2019-03-12T15:10:36.117Z,7.94
2019-03-12T15:13:07.028Z,7.87
2019-03-12T15:15:38.935Z,7.83
2019-03-12T15:18:09.854Z,7.75
2019-03-12T15:20:40.809Z,7.67
2019-03-12T15:23:13.505Z,7.69
2019-03-12T15:25:44.431Z,7.68
2019-03-12T15:28:15.346Z,7.63
2019-03-12T15:30:47.946Z,7.61
2019-03-12T15:33:18.855Z,7.62
2019-03-12T15:35:49.789Z,7.61
2019-03-12T15:38:20.750Z,7.59
2019-03-12T15:40:51.684Z,7.53
2019-03-12T15:43:22.595Z,7.56
2019-03-12T15:45:55.233Z,7.52
2019-03-12T15:48:28.436Z,7.54
2019-03-12T15:50:59.366Z,7.53
2019-03-12T15:53:30.266Z,7.51
2019-03-12T15:56:01.195Z,7.49
2019-03-12T15:58:32.099Z,7.46
2019-03-12T16:01:07.196Z,7.44
2019-03-12T16:03:38.284Z,7.42
2019-03-12T16:06:09.305Z,7.36
2019-03-12T16:08:40.247Z,7.30
2019-03-12T16:11:11.185Z,7.29
2019-03-12T16:13:42.154Z,7.26
2019-03-12T16:16:13.226Z,7.27
2019-03-12T16:18:44.134Z,7.21
2019-03-12T16:21:15.163Z,7.23
2019-03-12T16:23:47.725Z,7.20
2019-03-12T16:26:18.677Z,7.20
2019-03-12T16:28:49.602Z,7.21
2019-03-12T16:31:21.567Z,7.18
2019-03-12T16:33:52.480Z,7.15
2019-03-12T16:36:23.912Z,7.16
2019-03-12T16:38:54.837Z,7.17
2019-03-12T16:41:30.954Z,7.16
2019-03-12T16:44:02.712Z,7.13
2019-03-12T16:46:34.648Z,7.04
2019-03-12T16:49:05.544Z,6.97
2019-03-12T16:51:36.880Z,6.91
2019-03-12T16:54:07.780Z,6.82
2019-03-12T16:56:45.010Z,6.66
2019-03-12T16:59:11.398Z,6.61
2019-03-12T17:01:43.177Z,6.54
2019-03-12T17:04:14.083Z,6.47
2019-03-12T17:06:45.093Z,6.39
2019-03-12T17:09:16.379Z,6.26
2019-03-12T17:11:47.298Z,6.18
2019-03-12T17:14:18.214Z,6.05
2019-03-12T17:16:50.020Z,6.00
2019-03-12T17:19:20.931Z,5.94
2019-03-12T17:21:51.975Z,5.90
2019-03-12T17:24:23.748Z,5.85
2019-03-12T17:26:54.746Z,5.79
2019-03-12T17:29:25.735Z,5.72
2019-03-12T17:31:57.552Z,5.71
2019-03-12T17:34:35.768Z,5.68
2019-03-12T17:37:01.101Z,5.64
2019-03-12T17:39:32.009Z,5.62
2019-03-12T17:42:02.957Z,5.58
2019-03-12T17:44:33.882Z,5.52
2019-03-12T17:47:05.697Z,5.48
2019-03-12T17:49:36.926Z,5.43
2019-03-12T17:52:07.934Z,5.38
2019-03-12T17:54:38.839Z,5.34
2019-03-12T17:57:09.873Z,5.29
2019-03-12T17:59:40.876Z,5.26
2019-03-12T18:02:13.676Z,5.22
2019-03-12T18:04:44.730Z,5.20
2019-03-12T18:07:15.687Z,5.14
2019-03-12T18:09:51.955Z,5.10
2019-03-12T18:12:22.970Z,5.07
2019-03-12T18:14:53.871Z,5.05
2019-03-12T18:17:25.767Z,5.02
2019-03-12T18:19:56.692Z,4.99
2019-03-12T18:22:27.713Z,4.97
2019-03-12T18:25:00.447Z,4.93
2019-03-12T18:27:31.382Z,4.90
2019-03-12T18:30:02.366Z,4.85
2019-03-12T18:32:34.990Z,4.82
2019-03-12T18:35:07.830Z,4.79
2019-03-12T18:37:38.780Z,4.75
2019-03-12T18:40:15.103Z,4.71
2019-03-12T18:42:46.058Z,4.68
2019-03-12T18:45:22.888Z,4.64
2019-03-12T18:47:54.770Z,4.60
2019-03-12T18:50:25.797Z,4.56
2019-03-12T18:52:56.827Z,4.52
2019-03-12T18:55:33.537Z,4.44
2019-03-12T18:58:08.780Z,4.36
2019-03-12T19:00:43.113Z,4.29
2019-03-12T19:03:15.384Z,4.23
2019-03-12T19:05:46.277Z,4.17
2019-03-12T19:08:17.390Z,4.10
2019-03-12T19:10:48.338Z,4.04
2019-03-12T19:13:19.344Z,3.99
2019-03-12T19:15:50.376Z,3.94
2019-03-12T19:18:27.663Z,3.89
2019-03-12T19:20:58.668Z,3.81
2019-03-12T19:23:29.644Z,3.81
2019-03-12T19:26:02.114Z,3.79
2019-03-12T19:28:33.123Z,3.78
2019-03-12T19:31:05.673Z,3.76
2019-03-12T19:33:37.589Z,3.78
2019-03-12T19:36:08.521Z,3.79
2019-03-12T19:38:39.457Z,3.81
2019-03-12T19:41:10.375Z,3.76
2019-03-12T19:43:41.308Z,3.73
2019-03-12T19:46:12.232Z,3.66
2019-03-12T19:48:44.115Z,3.71
2019-03-12T19:51:15.020Z,3.69
2019-03-12T19:53:45.962Z,3.66
2019-03-12T19:56:16.887Z,3.59
2019-03-12T19:58:47.840Z,3.55
2019-03-12T20:01:19.265Z,3.44
2019-03-12T20:03:51.868Z,3.37
2019-03-12T20:06:22.855Z,3.25
2019-03-12T20:08:56.900Z,3.12
2019-03-12T20:12:00.572Z,3.12
2019-03-12T20:15:06.717Z,3.15
2019-03-12T20:18:15.728Z,3.13
2019-03-12T20:20:59.402Z,3.10
2019-03-12T20:23:41.978Z,2.92
2019-03-12T20:26:49.849Z,2.92
2019-03-12T20:29:35.524Z,2.90
2019-03-12T20:32:31.875Z,2.85
2019-03-12T20:35:28.464Z,2.79
2019-03-12T20:38:30.229Z,2.74
2019-03-12T20:41:12.633Z,2.66
2019-03-12T20:44:12.136Z,2.64
2019-03-12T20:47:10.148Z,2.62
2019-03-12T20:50:03.676Z,2.57
2019-03-12T20:52:54.043Z,2.53
2019-03-12T20:55:48.383Z,2.51
2019-03-12T20:58:38.589Z,2.50
2019-03-12T21:01:28.044Z,2.48
2019-03-12T21:04:13.870Z,2.46
2019-03-12T21:07:10.304Z,2.40
2019-03-12T21:10:17.366Z,2.31
2019-03-12T21:13:17.171Z,2.31
2019-03-12T21:16:03.030Z,2.31
2019-03-12T21:19:10.039Z,2.19
2019-03-12T21:21:49.698Z,2.16
2019-03-12T21:24:47.877Z,2.15
2019-03-12T21:27:27.716Z,2.14
2019-03-12T21:29:59.068Z,2.14
2019-03-12T21:32:30.055Z,2.18
2019-03-12T21:35:00.994Z,2.11
2019-03-12T21:37:31.915Z,2.12
2019-03-12T21:40:02.854Z,2.11
2019-03-12T21:42:33.780Z,2.05
2019-03-12T21:45:07.554Z,2.08
2019-03-12T21:47:38.470Z,2.08
2019-03-12T21:50:10.629Z,2.09
2019-03-12T21:52:41.530Z,2.05
2019-03-12T21:55:14.483Z,2.08
2019-03-12T21:57:45.389Z,2.05
2019-03-12T22:00:19.081Z,2.02
2019-03-12T22:02:50.013Z,1.92
2019-03-12T22:05:20.940Z,1.92
2019-03-12T22:07:51.847Z,1.86
2019-03-12T22:10:23.675Z,1.88
2019-03-12T22:12:54.571Z,1.88
2019-03-12T22:15:29.536Z,1.89
2019-03-12T22:17:59.184Z,1.94
2019-03-12T22:20:30.916Z,1.98
2019-03-12T22:23:15.549Z,2.02
2019-03-12T22:25:46.495Z,2.03
2019-03-12T22:28:18.234Z,2.03
2019-03-12T22:30:50.170Z,2.08
2019-03-12T22:33:21.151Z,2.10
2019-03-12T22:35:54.756Z,2.10
2019-03-12T22:38:25.743Z,2.11
2019-03-12T22:40:56.680Z,2.11
2019-03-12T22:43:27.588Z,2.14
2019-03-12T22:45:59.364Z,2.16
2019-03-12T22:48:30.268Z,2.16
2019-03-12T22:51:01.197Z,2.18
2019-03-12T22:53:33.760Z,2.20
2019-03-12T22:56:06.772Z,2.24
2019-03-12T22:58:37.681Z,2.28
2019-03-12T23:01:08.696Z,2.31
2019-03-12T23:03:39.610Z,2.32
2019-03-12T23:06:11.549Z,2.32
2019-03-12T23:08:42.473Z,2.36
2019-03-12T23:11:13.434Z,2.52
2019-03-12T23:13:44.364Z,2.93
2019-03-12T23:16:15.344Z,2.93
2019-03-12T23:18:46.272Z,3.11
2019-03-12T23:21:17.250Z,3.28
2019-03-12T23:23:48.159Z,3.56
2019-03-12T23:26:19.133Z,3.56
2019-03-12T23:28:50.866Z,3.71
2019-03-12T23:31:23.314Z,3.82
2019-03-12T23:33:54.308Z,3.91
2019-03-12T23:36:25.273Z,4.01
2019-03-12T23:38:56.213Z,4.09
2019-03-12T23:41:27.170Z,4.17
2019-03-12T23:43:58.160Z,4.20
2019-03-12T23:46:30.741Z,4.29
2019-03-12T23:49:01.676Z,4.37
2019-03-12T23:51:32.676Z,4.39
2019-03-12T23:54:03.601Z,4.41
2019-03-12T23:56:34.558Z,4.46
2019-03-12T23:59:05.574Z,4.50
